PRIVATE WETTERSTATION BILLIGHEIM-ALLFELD                       ZURCK
Wetterdaten: Samstag, 25.06.2016
Datum Zeit Temp. A. Temp. A. min Temp. A. max Feuchte A. Luftdruck Regen Wind Richtung Richtung Sonnenschein ET Solar Taupunkt Windchill Windben Empfang
25.06.2016 00:00 22,7 C 22,7 C 22,8 C 87 % 1013,0 hPa 0,0 l/m 0,0 km/h (0 Bft) N-NW 337 0 min 0,025 mm 0 W/m 20,4 C 22,7 C 3,2 km/h (1 Bft) 100 %
25.06.2016 00:10 22,7 C 22,7 C 22,7 C 87 % 1012,7 hPa 0,0 l/m 0,0 km/h (0 Bft) N-NW 337 0 min 0,000 mm 0 W/m 20,4 C 22,7 C 6,4 km/h (2 Bft) 81 %
25.06.2016 00:20 22,6 C 22,6 C 22,7 C 88 % 1012,7 hPa 0,0 l/m 0,0 km/h (0 Bft) N 0 0 min 0,000 mm 0 W/m 20,5 C 22,6 C 0,0 km/h (0 Bft) 100 %
25.06.2016 00:30 22,4 C 22,4 C 22,6 C 87 % 1013,0 hPa 0,0 l/m 0,0 km/h (0 Bft) N 0 0 min 0,000 mm 0 W/m 20,1 C 22,4 C 0,0 km/h (0 Bft) 100 %
25.06.2016 00:40 22,2 C 22,2 C 22,4 C 88 % 1013,3 hPa 0,0 l/m 0,0 km/h (0 Bft) NO 45 0 min 0,000 mm 0 W/m 20,1 C 22,2 C 1,6 km/h (1 Bft) 100 %
25.06.2016 00:50 22,2 C 22,2 C 22,2 C 88 % 1013,4 hPa 0,0 l/m 1,6 km/h (1 Bft) SO 135 0 min 0,000 mm 0 W/m 20,1 C 22,2 C 6,4 km/h (2 Bft) 100 %
25.06.2016 01:00 22,2 C 22,2 C 22,2 C 88 % 1014,0 hPa 0,0 l/m 4,8 km/h (1 Bft) SO 135 0 min 0,025 mm 0 W/m 20,1 C 22,2 C 17,7 km/h (3 Bft) 100 %
25.06.2016 01:10 22,2 C 22,2 C 22,3 C 89 % 1013,5 hPa 1,4 l/m 3,2 km/h (1 Bft) O-SO 112 0 min 0,000 mm 0 W/m 20,3 C 22,2 C 11,3 km/h (2 Bft) 100 %
25.06.2016 01:20 21,9 C 21,9 C 22,2 C 89 % 1013,8 hPa 0,6 l/m 0,0 km/h (0 Bft) S 180 0 min 0,000 mm 0 W/m 20,0 C 21,9 C 1,6 km/h (1 Bft) 100 %
25.06.2016 01:30 21,5 C 21,5 C 21,9 C 89 % 1013,5 hPa 0,8 l/m 1,6 km/h (1 Bft) SO 135 0 min 0,000 mm 0 W/m 19,6 C 21,5 C 11,3 km/h (2 Bft) 99 %
25.06.2016 01:40 20,9 C 20,9 C 21,5 C 89 % 1013,8 hPa 0,8 l/m 3,2 km/h (1 Bft) SO 135 0 min 0,000 mm 0 W/m 19,0 C 20,9 C 16,1 km/h (3 Bft) 100 %
25.06.2016 01:50 20,0 C 20,0 C 20,9 C 89 % 1013,9 hPa 0,8 l/m 6,4 km/h (2 Bft) S-SO 157 0 min 0,000 mm 0 W/m 18,1 C 20,0 C 16,1 km/h (3 Bft) 89 %
25.06.2016 02:00 19,4 C 19,4 C 20,0 C 89 % 1013,9 hPa 0,8 l/m 3,2 km/h (1 Bft) SO 135 0 min 0,025 mm 0 W/m 17,5 C 19,4 C 12,9 km/h (3 Bft) 99 %
25.06.2016 02:10 19,4 C 19,3 C 19,4 C 90 % 1014,5 hPa 0,8 l/m 1,6 km/h (1 Bft) NW 315 0 min 0,000 mm 0 W/m 17,7 C 19,4 C 8,0 km/h (2 Bft) 100 %
25.06.2016 02:20 19,3 C 19,3 C 19,5 C 90 % 1014,1 hPa 0,6 l/m 4,8 km/h (1 Bft) W-NW 292 0 min 0,000 mm 0 W/m 17,6 C 19,3 C 14,5 km/h (3 Bft) 100 %
25.06.2016 02:30 18,9 C 18,9 C 19,3 C 90 % 1013,7 hPa 0,2 l/m 0,0 km/h (0 Bft) N 0 0 min 0,000 mm 0 W/m 17,2 C 18,9 C 0,0 km/h (0 Bft) 100 %
25.06.2016 02:40 18,9 C 18,9 C 18,9 C 90 % 1013,7 hPa 0,2 l/m 3,2 km/h (1 Bft) NW 315 0 min 0,000 mm 0 W/m 17,2 C 18,9 C 11,3 km/h (2 Bft) 100 %
25.06.2016 02:50 18,8 C 18,8 C 18,9 C 90 % 1012,9 hPa 0,2 l/m 8,0 km/h (2 Bft) NW 315 0 min 0,000 mm 0 W/m 17,1 C 18,1 C 17,7 km/h (3 Bft) 100 %
25.06.2016 03:00 18,5 C 18,5 C 18,8 C 90 % 1013,0 hPa 0,2 l/m 3,2 km/h (1 Bft) NW 315 0 min 0,000 mm 0 W/m 16,8 C 18,5 C 9,7 km/h (2 Bft) 100 %
25.06.2016 03:10 18,2 C 18,2 C 18,5 C 90 % 1012,5 hPa 0,0 l/m 8,0 km/h (2 Bft) W-NW 292 0 min 0,000 mm 0 W/m 16,5 C 17,5 C 24,1 km/h (4 Bft) 100 %
25.06.2016 03:20 18,0 C 18,0 C 18,2 C 90 % 1012,6 hPa 0,0 l/m 8,0 km/h (2 Bft) NW 315 0 min 0,000 mm 0 W/m 16,3 C 17,3 C 24,1 km/h (4 Bft) 100 %
25.06.2016 03:30 17,8 C 17,8 C 17,9 C 90 % 1011,9 hPa 0,0 l/m 6,4 km/h (2 Bft) N-NW 337 0 min 0,000 mm 0 W/m 16,1 C 17,8 C 20,9 km/h (4 Bft) 100 %
25.06.2016 03:40 17,6 C 17,6 C 17,8 C 90 % 1011,8 hPa 0,0 l/m 4,8 km/h (1 Bft) NW 315 0 min 0,000 mm 0 W/m 15,9 C 17,6 C 17,7 km/h (3 Bft) 100 %
25.06.2016 03:50 17,4 C 17,4 C 17,6 C 90 % 1012,2 hPa 0,0 l/m 1,6 km/h (1 Bft) NW 315 0 min 0,000 mm 0 W/m 15,7 C 17,4 C 9,7 km/h (2 Bft) 100 %
25.06.2016 04:00 17,3 C 17,3 C 17,4 C 90 % 1011,9 hPa 0,0 l/m 1,6 km/h (1 Bft) W-SW 247 0 min 0,025 mm 0 W/m 15,6 C 17,3 C 6,4 km/h (2 Bft) 100 %
25.06.2016 04:10 17,2 C 17,2 C 17,3 C 90 % 1011,6 hPa 0,0 l/m 0,0 km/h (0 Bft) W-NW 292 0 min 0,000 mm 0 W/m 15,5 C 17,2 C 4,8 km/h (1 Bft) 100 %
25.06.2016 04:20 17,2 C 17,2 C 17,2 C 90 % 1011,5 hPa 0,0 l/m 0,0 km/h (0 Bft) N-NW 337 0 min 0,000 mm 0 W/m 15,5 C 17,2 C 9,7 km/h (2 Bft) 100 %
25.06.2016 04:30 17,1 C 17,1 C 17,2 C 90 % 1011,4 hPa 0,0 l/m 0,0 km/h (0 Bft) NW 315 0 min 0,000 mm 0 W/m 15,4 C 17,1 C 1,6 km/h (1 Bft) 98 %
25.06.2016 04:40 17,1 C 17,1 C 17,1 C 90 % 1011,4 hPa 0,2 l/m 0,0 km/h (0 Bft) N-NO 22 0 min 0,000 mm 0 W/m 15,4 C 17,1 C 1,6 km/h (1 Bft) 100 %
25.06.2016 04:50 17,1 C 17,1 C 17,1 C 91 % 1011,3 hPa 0,0 l/m 0,0 km/h (0 Bft) O-SO 112 0 min 0,000 mm 0 W/m 15,6 C 17,1 C 1,6 km/h (1 Bft) 100 %
25.06.2016 05:00 17,0 C 17,0 C 17,1 C 91 % 1011,2 hPa 0,0 l/m 0,0 km/h (0 Bft) N 0 0 min 0,000 mm 0 W/m 15,5 C 17,0 C 0,0 km/h (0 Bft) 100 %
25.06.2016 05:10 17,0 C 17,0 C 17,0 C 91 % 1011,2 hPa 0,0 l/m 0,0 km/h (0 Bft) N 0 0 min 0,000 mm 0 W/m 15,5 C 17,0 C 0,0 km/h (0 Bft) 99 %
25.06.2016 05:20 17,1 C 17,0 C 17,1 C 91 % 1011,3 hPa 0,0 l/m 0,0 km/h (0 Bft) N 0 0 min 0,000 mm 0 W/m 15,6 C 17,1 C 0,0 km/h (0 Bft) 100 %
25.06.2016 05:30 17,0 C 17,0 C 17,1 C 91 % 1011,1 hPa 0,0 l/m 1,6 km/h (1 Bft) S 180 0 min 0,000 mm 0 W/m 15,5 C 17,0 C 11,3 km/h (2 Bft) 100 %
25.06.2016 05:40 17,0 C 16,9 C 17,0 C 91 % 1010,7 hPa 0,0 l/m 0,0 km/h (0 Bft) W 270 0 min 0,000 mm 0 W/m 15,5 C 17,0 C 1,6 km/h (1 Bft) 100 %
25.06.2016 05:50 17,0 C 17,0 C 17,1 C 91 % 1010,2 hPa 0,0 l/m 0,0 km/h (0 Bft) N 360 0 min 0,000 mm 7 W/m 15,5 C 17,0 C 9,7 km/h (2 Bft) 100 %
25.06.2016 06:00 16,9 C 16,9 C 17,0 C 91 % 1010,6 hPa 0,0 l/m 0,0 km/h (0 Bft) N 0 0 min 0,000 mm 9 W/m 15,4 C 16,9 C 0,0 km/h (0 Bft) 100 %
25.06.2016 06:10 16,9 C 16,9 C 16,9 C 91 % 1011,1 hPa 0,0 l/m 0,0 km/h (0 Bft) N 0 0 min 0,000 mm 12 W/m 15,4 C 16,9 C 0,0 km/h (0 Bft) 100 %
25.06.2016 06:20 16,9 C 16,9 C 16,9 C 91 % 1011,8 hPa 0,0 l/m 0,0 km/h (0 Bft) O-NO 67 0 min 0,000 mm 12 W/m 15,4 C 16,9 C 1,6 km/h (1 Bft) 100 %
25.06.2016 06:30 16,9 C 16,9 C 16,9 C 91 % 1011,9 hPa 0,0 l/m 0,0 km/h (0 Bft) O-SO 112 0 min 0,000 mm 18 W/m 15,4 C 16,9 C 1,6 km/h (1 Bft) 100 %
25.06.2016 06:40 16,9 C 16,9 C 16,9 C 91 % 1011,4 hPa 0,0 l/m 0,0 km/h (0 Bft) N 0 0 min 0,000 mm 28 W/m 15,4 C 16,9 C 0,0 km/h (0 Bft) 100 %
25.06.2016 06:50 17,1 C 16,9 C 17,1 C 91 % 1011,4 hPa 0,0 l/m 0,0 km/h (0 Bft) N 0 0 min 0,000 mm 32 W/m 15,6 C 17,1 C 0,0 km/h (0 Bft) 100 %
25.06.2016 07:00 17,1 C 17,0 C 17,1 C 91 % 1011,6 hPa 0,0 l/m 0,0 km/h (0 Bft) N 0 0 min 0,025 mm 44 W/m 15,6 C 17,1 C 0,0 km/h (0 Bft) 100 %
25.06.2016 07:10 17,3 C 17,1 C 17,3 C 90 % 1012,0 hPa 0,2 l/m 0,0 km/h (0 Bft) N 0 0 min 0,000 mm 47 W/m 15,6 C 17,3 C 0,0 km/h (0 Bft) 100 %
25.06.2016 07:20 17,3 C 17,3 C 17,4 C 91 % 1012,3 hPa 0,0 l/m 1,6 km/h (1 Bft) S-SO 157 0 min 0,000 mm 56 W/m 15,8 C 17,3 C 9,7 km/h (2 Bft) 100 %
25.06.2016 07:30 17,4 C 17,3 C 17,4 C 90 % 1012,2 hPa 0,0 l/m 1,6 km/h (1 Bft) S-SO 157 0 min 0,000 mm 86 W/m 15,7 C 17,4 C 8,0 km/h (2 Bft) 99 %
25.06.2016 07:40 17,5 C 17,4 C 17,6 C 90 % 1012,2 hPa 0,0 l/m 0,0 km/h (0 Bft) S-SO 157 0 min 0,000 mm 90 W/m 15,8 C 17,5 C 1,6 km/h (1 Bft) 100 %
25.06.2016 07:50 17,6 C 17,5 C 17,6 C 90 % 1012,2 hPa 0,0 l/m 0,0 km/h (0 Bft) N 0 0 min 0,000 mm 98 W/m 15,9 C 17,6 C 0,0 km/h (0 Bft) 99 %
25.06.2016 08:00 17,5 C 17,4 C 17,6 C 90 % 1012,0 hPa 0,0 l/m 0,0 km/h (0 Bft) SO 135 0 min 0,051 mm 118 W/m 15,8 C 17,5 C 1,6 km/h (1 Bft) 100 %
25.06.2016 08:10 17,7 C 17,4 C 17,7 C 90 % 1012,0 hPa 0,0 l/m 0,0 km/h (0 Bft) SO 135 0 min 0,000 mm 118 W/m 16,0 C 17,7 C 1,6 km/h (1 Bft) 100 %
25.06.2016 08:20 17,8 C 17,7 C 17,8 C 90 % 1012,2 hPa 0,0 l/m 0,0 km/h (0 Bft) N 0 0 min 0,000 mm 104 W/m 16,1 C 17,8 C 0,0 km/h (0 Bft) 100 %
25.06.2016 08:30 17,9 C 17,8 C 17,9 C 90 % 1012,0 hPa 0,0 l/m 0,0 km/h (0 Bft) N 0 0 min 0,000 mm 118 W/m 16,2 C 17,9 C 0,0 km/h (0 Bft) 100 %
25.06.2016 08:40 18,0 C 17,9 C 18,0 C 90 % 1011,7 hPa 0,0 l/m 0,0 km/h (0 Bft) N 0 10 min 0,000 mm 179 W/m 16,3 C 18,0 C 0,0 km/h (0 Bft) 100 %
25.06.2016 08:50 18,2 C 17,9 C 18,2 C 90 % 1011,8 hPa 0,0 l/m 0,0 km/h (0 Bft) S-SO 157 10 min 0,000 mm 195 W/m 16,5 C 18,2 C 1,6 km/h (1 Bft) 100 %
25.06.2016 09:00 18,4 C 18,2 C 18,4 C 90 % 1012,0 hPa 0,0 l/m 0,0 km/h (0 Bft) N 0 10 min 0,076 mm 448 W/m 16,7 C 18,4 C 0,0 km/h (0 Bft) 100 %
25.06.2016 09:10 18,8 C 18,4 C 18,8 C 90 % 1012,0 hPa 0,0 l/m 0,0 km/h (0 Bft) N 0 10 min 0,000 mm 615 W/m 17,1 C 18,8 C 0,0 km/h (0 Bft) 100 %
25.06.2016 09:20 19,3 C 18,8 C 19,3 C 91 % 1011,6 hPa 0,0 l/m 0,0 km/h (0 Bft) S-SO 157 10 min 0,000 mm 633 W/m 17,8 C 19,3 C 1,6 km/h (1 Bft) 100 %
25.06.2016 09:30 19,8 C 19,3 C 19,8 C 90 % 1011,8 hPa 0,0 l/m 0,0 km/h (0 Bft) N 0 10 min 0,000 mm 691 W/m 18,1 C 19,8 C 0,0 km/h (0 Bft) 100 %
25.06.2016 09:40 20,3 C 19,8 C 20,3 C 90 % 1011,5 hPa 0,0 l/m 0,0 km/h (0 Bft) N 0 10 min 0,000 mm 752 W/m 18,6 C 20,3 C 0,0 km/h (0 Bft) 100 %
25.06.2016 09:50 20,8 C 20,3 C 20,8 C 89 % 1011,5 hPa 0,0 l/m 0,0 km/h (0 Bft) SW 225 10 min 0,000 mm 367 W/m 18,9 C 20,8 C 1,6 km/h (1 Bft) 100 %
25.06.2016 10:00 21,2 C 20,7 C 21,2 C 89 % 1011,6 hPa 0,0 l/m 0,0 km/h (0 Bft) SW 225 10 min 0,279 mm 671 W/m 19,3 C 21,2 C 1,6 km/h (1 Bft) 100 %
25.06.2016 10:10 21,0 C 21,0 C 21,2 C 88 % 1011,6 hPa 0,0 l/m 0,0 km/h (0 Bft) S-SW 202 10 min 0,000 mm 360 W/m 18,9 C 21,0 C 1,6 km/h (1 Bft) 100 %
25.06.2016 10:20 20,9 C 20,9 C 21,1 C 88 % 1011,8 hPa 0,0 l/m 0,0 km/h (0 Bft) S 180 10 min 0,000 mm 301 W/m 18,8 C 20,9 C 1,6 km/h (1 Bft) 100 %
25.06.2016 10:30 20,8 C 20,8 C 21,1 C 88 % 1011,9 hPa 0,0 l/m 5,8 km/h (2 Bft) S 183 10 min 0,000 mm 218 W/m 18,7 C 20,8 C 9,7 km/h (2 Bft) 98 %
25.06.2016 10:40 20,7 C 20,7 C 20,8 C 88 % 1011,8 hPa 0,0 l/m 2,2 km/h (1 Bft) S 182 10 min 0,000 mm 213 W/m 18,6 C 20,7 C 9,7 km/h (2 Bft) 98 %
25.06.2016 10:50 20,7 C 20,6 C 20,7 C 89 % 1011,9 hPa 0,0 l/m 5,2 km/h (1 Bft) S-SW 212 10 min 0,000 mm 192 W/m 18,8 C 20,7 C 17,7 km/h (3 Bft) 98 %
25.06.2016 11:00 21,5 C 20,7 C 21,5 C 90 % 1011,9 hPa 0,0 l/m 5,5 km/h (1 Bft) S-SW 202 10 min 0,000 mm 1086 W/m 19,8 C 21,5 C 17,7 km/h (3 Bft) 97 %
25.06.2016 11:10 21,9 C 21,5 C 21,9 C 88 % 1011,8 hPa 0,0 l/m 5,0 km/h (1 Bft) W-SW 238 10 min 0,180 mm 313 W/m 19,8 C 21,9 C 16,1 km/h (3 Bft) 98 %
25.06.2016 11:20 22,1 C 21,9 C 22,1 C 86 % 1011,7 hPa 0,0 l/m 2,8 km/h (1 Bft) S-SW 209 10 min 0,000 mm 301 W/m 19,6 C 22,1 C 11,3 km/h (2 Bft) 97 %
25.06.2016 11:30 22,3 C 22,1 C 22,3 C 85 % 1011,8 hPa 0,0 l/m 0,8 km/h (0 Bft) S 184 10 min 0,000 mm 367 W/m 19,7 C 22,3 C 11,3 km/h (2 Bft) 97 %
25.06.2016 11:40 21,8 C 21,8 C 22,3 C 85 % 1011,6 hPa 0,0 l/m 3,6 km/h (1 Bft) S 171 10 min 0,000 mm 281 W/m 19,2 C 21,8 C 14,5 km/h (3 Bft) 97 %
25.06.2016 11:50 22,2 C 21,7 C 22,2 C 87 % 1011,7 hPa 0,0 l/m 3,3 km/h (1 Bft) S-SW 197 10 min 0,000 mm 1271 W/m 19,9 C 22,2 C 16,1 km/h (3 Bft) 98 %
25.06.2016 12:00 22,8 C 22,2 C 22,8 C 83 % 1011,6 hPa 0,0 l/m 1,8 km/h (1 Bft) SW 222 10 min 0,000 mm 390 W/m 19,8 C 22,8 C 14,5 km/h (3 Bft) 97 %
25.06.2016 12:10 22,6 C 22,6 C 22,8 C 83 % 1011,4 hPa 0,0 l/m 8,0 km/h (2 Bft) W-SW 241 10 min 0,279 mm 387 W/m 19,6 C 22,1 C 19,3 km/h (3 Bft) 97 %
25.06.2016 12:20 22,8 C 22,6 C 22,8 C 84 % 1011,4 hPa 0,0 l/m 5,4 km/h (1 Bft) S 182 10 min 0,001 mm 359 W/m 19,9 C 22,8 C 14,5 km/h (3 Bft) 97 %
25.06.2016 12:30 22,7 C 22,7 C 22,8 C 81 % 1011,3 hPa 0,0 l/m 6,7 km/h (2 Bft) S-SW 199 10 min 0,000 mm 350 W/m 19,3 C 22,6 C 16,1 km/h (3 Bft) 97 %
25.06.2016 12:40 22,7 C 22,7 C 22,7 C 81 % 1011,1 hPa 0,0 l/m 6,4 km/h (2 Bft) S 173 10 min 0,000 mm 731 W/m 19,3 C 22,7 C 17,7 km/h (3 Bft) 97 %
25.06.2016 12:50 23,0 C 22,7 C 23,0 C 81 % 1011,1 hPa 0,0 l/m 6,1 km/h (2 Bft) S-SW 208 10 min 0,000 mm 995 W/m 19,6 C 23,0 C 16,1 km/h (3 Bft) 98 %
25.06.2016 13:00 23,7 C 23,0 C 23,7 C 80 % 1011,0 hPa 0,0 l/m 5,1 km/h (1 Bft) SW 219 10 min 0,330 mm 334 W/m 20,0 C 23,7 C 17,7 km/h (3 Bft) 97 %
25.06.2016 13:10 23,8 C 23,7 C 23,8 C 77 % 1010,9 hPa 0,0 l/m 7,0 km/h (2 Bft) S 191 10 min 0,000 mm 366 W/m 19,5 C 23,6 C 16,1 km/h (3 Bft) 98 %
25.06.2016 13:20 23,5 C 23,5 C 23,8 C 76 % 1010,8 hPa 0,0 l/m 4,0 km/h (1 Bft) W 271 10 min 0,000 mm 376 W/m 19,0 C 23,5 C 16,1 km/h (3 Bft) 97 %
25.06.2016 13:30 23,5 C 23,4 C 23,6 C 78 % 1010,7 hPa 0,0 l/m 2,6 km/h (1 Bft) W-SW 254 10 min 0,000 mm 311 W/m 19,4 C 23,5 C 9,7 km/h (2 Bft) 98 %
25.06.2016 13:40 23,6 C 23,4 C 23,6 C 79 % 1010,7 hPa 0,0 l/m 0,8 km/h (0 Bft) W-SW 249 10 min 0,000 mm 371 W/m 19,7 C 23,6 C 8,0 km/h (2 Bft) 97 %
25.06.2016 13:50 23,6 C 23,6 C 23,6 C 78 % 1010,6 hPa 0,0 l/m 1,2 km/h (1 Bft) S 190 10 min 0,000 mm 422 W/m 19,5 C 23,6 C 9,7 km/h (2 Bft) 98 %
25.06.2016 14:00 23,4 C 23,4 C 23,6 C 78 % 1010,4 hPa 0,0 l/m 2,3 km/h (1 Bft) S 185 10 min 0,279 mm 401 W/m 19,3 C 23,4 C 14,5 km/h (3 Bft) 97 %
25.06.2016 14:10 23,7 C 23,4 C 23,7 C 79 % 1010,4 hPa 0,0 l/m 3,0 km/h (1 Bft) SO 130 10 min 0,000 mm 466 W/m 19,8 C 23,7 C 12,9 km/h (3 Bft) 97 %
25.06.2016 14:20 23,7 C 23,7 C 23,8 C 79 % 1010,3 hPa 0,0 l/m 6,4 km/h (2 Bft) SO 144 10 min 0,000 mm 237 W/m 19,8 C 23,7 C 16,1 km/h (3 Bft) 98 %
25.06.2016 14:30 23,1 C 23,1 C 23,7 C 79 % 1010,2 hPa 0,0 l/m 6,2 km/h (2 Bft) S 190 10 min 0,000 mm 313 W/m 19,3 C 23,1 C 16,1 km/h (3 Bft) 97 %
25.06.2016 14:40 23,2 C 23,1 C 23,2 C 80 % 1010,3 hPa 0,0 l/m 2,7 km/h (1 Bft) SW 225 10 min 0,000 mm 443 W/m 19,6 C 23,2 C 14,5 km/h (3 Bft) 98 %
25.06.2016 14:50 23,3 C 23,2 C 23,4 C 80 % 1009,9 hPa 0,0 l/m 2,1 km/h (1 Bft) SW 217 10 min 0,000 mm 236 W/m 19,6 C 23,3 C 11,3 km/h (2 Bft) 97 %
25.06.2016 15:00 23,0 C 23,0 C 23,3 C 81 % 1009,9 hPa 0,0 l/m 2,8 km/h (1 Bft) S-SW 201 10 min 0,229 mm 181 W/m 19,6 C 23,0 C 14,5 km/h (3 Bft) 97 %
25.06.2016 15:10 22,8 C 22,7 C 23,0 C 81 % 1010,0 hPa 0,0 l/m 5,1 km/h (1 Bft) S-SW 204 0 min 0,000 mm 148 W/m 19,4 C 22,8 C 11,3 km/h (2 Bft) 97 %
25.06.2016 15:20 22,6 C 22,6 C 22,8 C 82 % 1010,0 hPa 0,0 l/m 4,5 km/h (1 Bft) S-SW 206 10 min 0,000 mm 183 W/m 19,4 C 22,6 C 11,3 km/h (2 Bft) 97 %
25.06.2016 15:30 22,6 C 22,5 C 22,6 C 83 % 1010,0 hPa 0,0 l/m 0,6 km/h (0 Bft) S-SW 194 10 min 0,000 mm 390 W/m 19,6 C 22,6 C 6,4 km/h (2 Bft) 98 %
25.06.2016 15:40 23,4 C 22,6 C 23,4 C 81 % 1010,1 hPa 0,0 l/m 2,4 km/h (1 Bft) SW 229 10 min 0,000 mm 970 W/m 19,9 C 23,4 C 14,5 km/h (3 Bft) 97 %
25.06.2016 15:50 23,9 C 23,4 C 23,9 C 78 % 1010,1 hPa 0,0 l/m 6,3 km/h (2 Bft) S 180 10 min 0,000 mm 332 W/m 19,8 C 23,9 C 19,3 km/h (3 Bft) 98 %
25.06.2016 16:00 24,2 C 23,8 C 24,2 C 79 % 1009,8 hPa 0,0 l/m 4,0 km/h (1 Bft) SO 130 10 min 0,279 mm 772 W/m 20,3 C 24,2 C 17,7 km/h (3 Bft) 97 %
25.06.2016 16:10 24,4 C 24,2 C 24,4 C 76 % 1009,9 hPa 0,0 l/m 6,1 km/h (2 Bft) S-SW 204 10 min 0,000 mm 281 W/m 19,9 C 24,4 C 17,7 km/h (3 Bft) 98 %
25.06.2016 16:20 24,1 C 24,1 C 24,4 C 76 % 1010,0 hPa 0,0 l/m 7,8 km/h (2 Bft) S-SW 213 0 min 0,000 mm 127 W/m 19,6 C 23,7 C 17,7 km/h (3 Bft) 97 %
25.06.2016 16:30 23,3 C 23,3 C 24,1 C 78 % 1009,9 hPa 0,0 l/m 5,3 km/h (1 Bft) S-SW 197 0 min 0,000 mm 56 W/m 19,2 C 23,3 C 17,7 km/h (3 Bft) 97 %
25.06.2016 16:40 21,8 C 21,8 C 23,3 C 82 % 1011,4 hPa 8,4 l/m 18,9 km/h (3 Bft) NW 311 0 min 0,000 mm 0 W/m 18,6 C 18,7 C 54,7 km/h (7 Bft) 98 %
25.06.2016 16:50 19,3 C 19,3 C 21,8 C 88 % 1011,2 hPa 7,8 l/m 16,5 km/h (3 Bft) SW 236 0 min 0,000 mm 0 W/m 17,3 C 16,0 C 33,8 km/h (5 Bft) 97 %
25.06.2016 17:00 18,7 C 18,7 C 19,3 C 89 % 1011,3 hPa 1,2 l/m 10,7 km/h (2 Bft) W 276 0 min 0,127 mm 12 W/m 16,8 C 17,0 C 24,1 km/h (4 Bft) 98 %
25.06.2016 17:10 18,5 C 18,5 C 18,7 C 90 % 1011,2 hPa 0,4 l/m 10,5 km/h (2 Bft) W-SW 258 0 min 0,000 mm 46 W/m 16,8 C 16,8 C 22,5 km/h (4 Bft) 97 %
25.06.2016 17:20 18,6 C 18,5 C 18,6 C 90 % 1011,2 hPa 0,0 l/m 8,3 km/h (2 Bft) W 273 0 min 0,000 mm 123 W/m 16,9 C 17,8 C 22,5 km/h (4 Bft) 97 %
25.06.2016 17:30 18,7 C 18,6 C 18,7 C 90 % 1011,1 hPa 0,0 l/m 3,8 km/h (1 Bft) W-SW 258 10 min 0,000 mm 213 W/m 17,0 C 18,7 C 16,1 km/h (3 Bft) 98 %
25.06.2016 17:40 19,0 C 18,7 C 19,0 C 90 % 1011,2 hPa 0,0 l/m 5,7 km/h (1 Bft) W 260 10 min 0,000 mm 163 W/m 17,3 C 19,0 C 17,7 km/h (3 Bft) 98 %
25.06.2016 17:50 19,2 C 19,0 C 19,2 C 90 % 1011,1 hPa 0,0 l/m 7,9 km/h (2 Bft) W 269 10 min 0,000 mm 274 W/m 17,5 C 18,6 C 19,3 km/h (3 Bft) 97 %
25.06.2016 18:00 19,1 C 19,1 C 19,2 C 90 % 1011,5 hPa 0,0 l/m 11,5 km/h (2 Bft) W-NW 301 0 min 0,076 mm 54 W/m 17,4 C 17,1 C 29,0 km/h (5 Bft) 98 %
25.06.2016 18:10 18,3 C 18,3 C 19,1 C 90 % 1011,6 hPa 0,0 l/m 15,0 km/h (3 Bft) NW 304 0 min 0,000 mm 128 W/m 16,6 C 15,2 C 30,6 km/h (5 Bft) 98 %
25.06.2016 18:20 18,0 C 18,0 C 18,3 C 90 % 1011,9 hPa 0,0 l/m 11,5 km/h (2 Bft) NW 308 0 min 0,000 mm 134 W/m 16,3 C 15,9 C 32,2 km/h (5 Bft) 97 %
25.06.2016 18:30 17,8 C 17,8 C 18,1 C 90 % 1012,3 hPa 0,0 l/m 15,1 km/h (3 Bft) W-SW 240 10 min 0,000 mm 304 W/m 16,1 C 14,6 C 30,6 km/h (5 Bft) 97 %
25.06.2016 18:40 17,8 C 17,8 C 17,9 C 90 % 1012,2 hPa 0,0 l/m 15,6 km/h (3 Bft) NW 314 10 min 0,000 mm 220 W/m 16,1 C 14,4 C 30,6 km/h (5 Bft) 98 %
25.06.2016 18:50 17,9 C 17,8 C 17,9 C 90 % 1012,4 hPa 0,0 l/m 13,0 km/h (3 Bft) W 277 10 min 0,000 mm 230 W/m 16,2 C 15,3 C 27,4 km/h (4 Bft) 97 %
25.06.2016 19:00 17,8 C 17,8 C 17,9 C 90 % 1012,5 hPa 0,0 l/m 13,3 km/h (3 Bft) W-NW 300 10 min 0,127 mm 204 W/m 16,1 C 15,1 C 27,4 km/h (4 Bft) 90 %
25.06.2016 19:10 17,7 C 17,7 C 17,8 C 90 % 1012,8 hPa 0,0 l/m 10,9 km/h (2 Bft) NW 309 10 min 0,000 mm 169 W/m 16,0 C 15,8 C 24,1 km/h (4 Bft) 97 %
25.06.2016 19:20 17,6 C 17,6 C 17,7 C 90 % 1012,9 hPa 0,0 l/m 8,5 km/h (2 Bft) NW 309 0 min 0,000 mm 49 W/m 15,9 C 16,6 C 20,9 km/h (4 Bft) 98 %
25.06.2016 19:30 17,3 C 17,3 C 17,6 C 90 % 1013,1 hPa 0,0 l/m 8,8 km/h (2 Bft) W 281 0 min 0,000 mm 35 W/m 15,6 C 16,2 C 25,7 km/h (4 Bft) 98 %
25.06.2016 19:40 17,2 C 17,2 C 17,3 C 90 % 1013,4 hPa 0,0 l/m 6,6 km/h (2 Bft) W-NW 300 0 min 0,000 mm 12 W/m 15,5 C 17,1 C 20,9 km/h (4 Bft) 97 %
25.06.2016 19:50 17,0 C 17,0 C 17,2 C 90 % 1013,7 hPa 0,0 l/m 8,8 km/h (2 Bft) W-NW 300 0 min 0,000 mm 7 W/m 15,3 C 15,8 C 22,5 km/h (4 Bft) 97 %
25.06.2016 20:00 16,8 C 16,8 C 17,0 C 90 % 1013,9 hPa 0,0 l/m 11,5 km/h (2 Bft) W-NW 301 0 min 0,000 mm 9 W/m 15,1 C 14,5 C 22,5 km/h (4 Bft) 98 %
25.06.2016 20:10 16,6 C 16,6 C 16,8 C 90 % 1014,1 hPa 0,0 l/m 7,3 km/h (2 Bft) W 273 0 min 0,051 mm 0 W/m 15,0 C 16,1 C 20,9 km/h (4 Bft) 98 %
25.06.2016 20:20 16,4 C 16,4 C 16,6 C 90 % 1014,0 hPa 0,0 l/m 8,1 km/h (2 Bft) W-NW 298 0 min 0,000 mm 39 W/m 14,8 C 15,5 C 22,5 km/h (4 Bft) 97 %
25.06.2016 20:30 16,3 C 16,3 C 16,4 C 90 % 1014,0 hPa 0,0 l/m 4,4 km/h (1 Bft) NW 307 0 min 0,000 mm 14 W/m 14,7 C 16,3 C 12,9 km/h (3 Bft) 98 %
25.06.2016 20:40 16,2 C 16,2 C 16,3 C 89 % 1014,1 hPa 0,0 l/m 3,4 km/h (1 Bft) W-NW 287 0 min 0,000 mm 23 W/m 14,4 C 16,2 C 14,5 km/h (3 Bft) 98 %
25.06.2016 20:50 16,2 C 16,2 C 16,3 C 90 % 1014,1 hPa 0,0 l/m 3,4 km/h (1 Bft) N-NW 340 0 min 0,000 mm 21 W/m 14,6 C 16,2 C 11,3 km/h (2 Bft) 97 %
25.06.2016 21:00 16,0 C 16,0 C 16,2 C 90 % 1014,4 hPa 0,0 l/m 9,7 km/h (2 Bft) NW 315 0 min 0,026 mm 9 W/m 14,4 C 14,4 C 22,5 km/h (4 Bft) 98 %
25.06.2016 21:10 15,9 C 15,9 C 16,1 C 90 % 1014,6 hPa 0,0 l/m 8,0 km/h (2 Bft) NW 315 0 min 0,000 mm 12 W/m 14,3 C 15,0 C 19,3 km/h (3 Bft) 100 %
25.06.2016 21:20 15,8 C 15,8 C 15,9 C 90 % 1014,9 hPa 0,0 l/m 4,8 km/h (1 Bft) W-NW 292 0 min 0,000 mm 16 W/m 14,2 C 15,8 C 14,5 km/h (3 Bft) 100 %
25.06.2016 21:30 15,8 C 15,7 C 15,8 C 89 % 1015,1 hPa 0,0 l/m 1,6 km/h (1 Bft) NW 315 0 min 0,000 mm 0 W/m 14,0 C 15,8 C 11,3 km/h (2 Bft) 100 %
25.06.2016 21:40 15,7 C 15,7 C 15,8 C 90 % 1015,2 hPa 0,0 l/m 0,0 km/h (0 Bft) W-NW 292 0 min 0,000 mm 0 W/m 14,1 C 15,7 C 6,4 km/h (2 Bft) 100 %
25.06.2016 21:50 15,6 C 15,6 C 15,7 C 90 % 1015,2 hPa 0,0 l/m 0,0 km/h (0 Bft) W-NW 292 0 min 0,000 mm 0 W/m 14,0 C 15,6 C 4,8 km/h (1 Bft) 99 %
25.06.2016 22:00 15,3 C 15,3 C 15,6 C 90 % 1015,2 hPa 0,0 l/m 0,0 km/h (0 Bft) NW 315 0 min 0,000 mm 0 W/m 13,7 C 15,3 C 4,8 km/h (1 Bft) 100 %
25.06.2016 22:10 15,1 C 15,1 C 15,3 C 90 % 1015,2 hPa 0,0 l/m 1,6 km/h (1 Bft) NW 315 0 min 0,000 mm 0 W/m 13,5 C 15,1 C 8,0 km/h (2 Bft) 100 %
25.06.2016 22:20 15,1 C 15,1 C 15,1 C 90 % 1015,2 hPa 0,0 l/m 0,0 km/h (0 Bft) N-NW 337 0 min 0,000 mm 0 W/m 13,5 C 15,1 C 6,4 km/h (2 Bft) 100 %
25.06.2016 22:30 14,8 C 14,8 C 15,1 C 90 % 1015,2 hPa 0,0 l/m 0,0 km/h (0 Bft) N-NW 337 0 min 0,000 mm 0 W/m 13,2 C 14,8 C 6,4 km/h (2 Bft) 100 %
25.06.2016 22:40 14,6 C 14,6 C 14,8 C 90 % 1015,7 hPa 0,0 l/m 0,0 km/h (0 Bft) NW 315 0 min 0,000 mm 0 W/m 13,0 C 14,6 C 8,0 km/h (2 Bft) 100 %
25.06.2016 22:50 14,4 C 14,4 C 14,6 C 90 % 1015,8 hPa 0,0 l/m 0,0 km/h (0 Bft) N 0 0 min 0,000 mm 0 W/m 12,8 C 14,4 C 0,0 km/h (0 Bft) 100 %
25.06.2016 23:00 14,3 C 14,3 C 14,4 C 90 % 1016,1 hPa 0,0 l/m 0,0 km/h (0 Bft) N 0 0 min 0,000 mm 0 W/m 12,7 C 14,3 C 0,0 km/h (0 Bft) 99 %
25.06.2016 23:10 14,1 C 14,1 C 14,3 C 90 % 1016,2 hPa 0,0 l/m 0,0 km/h (0 Bft) N 0 0 min 0,000 mm 0 W/m 12,5 C 14,1 C 0,0 km/h (0 Bft) 100 %
25.06.2016 23:20 13,9 C 13,9 C 14,1 C 90 % 1016,4 hPa 0,0 l/m 0,0 km/h (0 Bft) N 0 0 min 0,000 mm 0 W/m 12,3 C 13,9 C 0,0 km/h (0 Bft) 100 %
25.06.2016 23:30 13,8 C 13,8 C 13,9 C 90 % 1016,4 hPa 0,0 l/m 0,0 km/h (0 Bft) N 0 0 min 0,000 mm 0 W/m 12,2 C 13,8 C 0,0 km/h (0 Bft) 100 %
25.06.2016 23:40 13,6 C 13,6 C 13,8 C 90 % 1016,6 hPa 0,0 l/m 0,0 km/h (0 Bft) N 0 0 min 0,000 mm 0 W/m 12,0 C 13,6 C 0,0 km/h (0 Bft) 100 %
25.06.2016 23:50 13,4 C 13,4 C 13,6 C 91 % 1016,6 hPa 0,0 l/m 0,0 km/h (0 Bft) N 0 0 min 0,000 mm 0 W/m 12,0 C 13,4 C 0,0 km/h (0 Bft) 100 %
_ Min-Zeit 23:50 23:50 23:50 13:20 16:00 - 00:00 - - - - - 23:50 23:50 00:20 00:10
Minimum _ 13,4 C 13,4 C 13,6 C 76 % 1009,8 hPa - 0,0 km/h (0 Bft) - - - - - 12,0 C 13,4 C 0,0 km/h (0 Bft) 81 %
_ Max-Zeit 16:10 16:10 16:10 04:50 23:40 16:40 16:40 - - 08:40 13:00 11:50 00:20 16:10 16:40 00:20
Maximum _ 24,4 C 24,2 C 24,4 C 91 % 1016,6 hPa 8,4 l/m 18,9 km/h
NW (3 Bft)
- - 10 min 0,330 mm 1271 W/m 20,5 C 24,4 C 54,7 km/h
W-SW (7 Bft)
100 %
Durchschnitt _ 19,2 C 19,1 C 19,4 C 88 % 1012,3 hPa #25,6 l/m 3,6 km/h (1 Bft) NW - #8:50 h #2,515 mm 263 W/m 17,1 C 18,9 C 11,3 km/h (2 Bft) 98 %
PRIVATE WETTERSTATION BILLIGHEIM-ALLFELD - www.neckar-odenwald-wetter.de - Holger Sonntag